sensor_id;sensor_type;location;lat;lon;timestamp;P1;durP1;ratioP1;P2;durP2;ratioP2
26656;SDS011;14279;50.010;8.260;2024-03-07T00:01:11;49.93;;;26.27;;
26656;SDS011;14279;50.010;8.260;2024-03-07T00:03:37;39.00;;;23.23;;
26656;SDS011;14279;50.010;8.260;2024-03-07T00:06:04;45.73;;;25.00;;
26656;SDS011;14279;50.010;8.260;2024-03-07T00:08:29;38.90;;;26.13;;
26656;SDS011;14279;50.010;8.260;2024-03-07T00:10:55;39.37;;;24.70;;
26656;SDS011;14279;50.010;8.260;2024-03-07T00:13:21;41.10;;;24.97;;
26656;SDS011;14279;50.010;8.260;2024-03-07T00:15:46;38.03;;;24.93;;
26656;SDS011;14279;50.010;8.260;2024-03-07T00:18:11;36.43;;;24.37;;
26656;SDS011;14279;50.010;8.260;2024-03-07T00:20:36;40.50;;;25.67;;
26656;SDS011;14279;50.010;8.260;2024-03-07T00:23:02;38.43;;;23.53;;
26656;SDS011;14279;50.010;8.260;2024-03-07T00:25:28;38.20;;;24.27;;
26656;SDS011;14279;50.010;8.260;2024-03-07T00:27:56;41.53;;;25.50;;
26656;SDS011;14279;50.010;8.260;2024-03-07T00:30:27;42.50;;;25.97;;
26656;SDS011;14279;50.010;8.260;2024-03-07T00:32:54;40.43;;;27.33;;
26656;SDS011;14279;50.010;8.260;2024-03-07T00:35:20;46.93;;;27.20;;
26656;SDS011;14279;50.010;8.260;2024-03-07T00:37:46;40.50;;;26.17;;
26656;SDS011;14279;50.010;8.260;2024-03-07T00:40:11;46.30;;;27.83;;
26656;SDS011;14279;50.010;8.260;2024-03-07T00:42:37;39.37;;;25.53;;
26656;SDS011;14279;50.010;8.260;2024-03-07T00:45:03;52.83;;;25.90;;
26656;SDS011;14279;50.010;8.260;2024-03-07T00:47:28;39.90;;;26.60;;
26656;SDS011;14279;50.010;8.260;2024-03-07T00:49:54;40.47;;;26.67;;
26656;SDS011;14279;50.010;8.260;2024-03-07T00:52:19;36.70;;;23.73;;
26656;SDS011;14279;50.010;8.260;2024-03-07T00:54:46;40.30;;;26.50;;
26656;SDS011;14279;50.010;8.260;2024-03-07T00:57:11;40.37;;;26.50;;
26656;SDS011;14279;50.010;8.260;2024-03-07T00:59:36;41.93;;;26.40;;
26656;SDS011;14279;50.010;8.260;2024-03-07T01:02:02;36.27;;;25.17;;
26656;SDS011;14279;50.010;8.260;2024-03-07T01:04:27;44.60;;;27.77;;
26656;SDS011;14279;50.010;8.260;2024-03-07T01:06:58;40.53;;;26.10;;
26656;SDS011;14279;50.010;8.260;2024-03-07T01:09:23;37.70;;;25.50;;
26656;SDS011;14279;50.010;8.260;2024-03-07T01:11:49;45.57;;;26.13;;
26656;SDS011;14279;50.010;8.260;2024-03-07T01:14:14;42.00;;;25.87;;
26656;SDS011;14279;50.010;8.260;2024-03-07T01:16:40;40.00;;;25.80;;
26656;SDS011;14279;50.010;8.260;2024-03-07T01:19:05;44.63;;;26.73;;
26656;SDS011;14279;50.010;8.260;2024-03-07T01:21:31;37.47;;;25.90;;
26656;SDS011;14279;50.010;8.260;2024-03-07T01:24:00;41.53;;;25.77;;
26656;SDS011;14279;50.010;8.260;2024-03-07T01:26:27;38.47;;;26.20;;
26656;SDS011;14279;50.010;8.260;2024-03-07T01:28:54;39.47;;;26.93;;
26656;SDS011;14279;50.010;8.260;2024-03-07T01:31:20;42.27;;;26.70;;
26656;SDS011;14279;50.010;8.260;2024-03-07T01:33:47;44.50;;;28.23;;
26656;SDS011;14279;50.010;8.260;2024-03-07T01:36:12;40.67;;;27.40;;
26656;SDS011;14279;50.010;8.260;2024-03-07T01:38:37;43.53;;;26.90;;
26656;SDS011;14279;50.010;8.260;2024-03-07T01:41:02;44.00;;;28.10;;
26656;SDS011;14279;50.010;8.260;2024-03-07T01:43:28;46.10;;;28.30;;
26656;SDS011;14279;50.010;8.260;2024-03-07T01:45:56;43.87;;;27.17;;
26656;SDS011;14279;50.010;8.260;2024-03-07T01:48:25;45.23;;;29.37;;
26656;SDS011;14279;50.010;8.260;2024-03-07T01:50:56;48.93;;;29.57;;
26656;SDS011;14279;50.010;8.260;2024-03-07T01:53:23;46.30;;;27.70;;
26656;SDS011;14279;50.010;8.260;2024-03-07T01:55:50;44.90;;;28.87;;
26656;SDS011;14279;50.010;8.260;2024-03-07T01:58:18;47.67;;;30.17;;
26656;SDS011;14279;50.010;8.260;2024-03-07T02:00:44;42.73;;;29.17;;
26656;SDS011;14279;50.010;8.260;2024-03-07T02:03:10;50.47;;;28.97;;
26656;SDS011;14279;50.010;8.260;2024-03-07T02:05:35;49.97;;;29.80;;
26656;SDS011;14279;50.010;8.260;2024-03-07T02:08:01;44.07;;;27.57;;
26656;SDS011;14279;50.010;8.260;2024-03-07T02:10:27;42.67;;;29.00;;
26656;SDS011;14279;50.010;8.260;2024-03-07T02:12:52;42.03;;;27.97;;
26656;SDS011;14279;50.010;8.260;2024-03-07T02:15:18;45.53;;;28.50;;
26656;SDS011;14279;50.010;8.260;2024-03-07T02:17:43;44.80;;;28.83;;
26656;SDS011;14279;50.010;8.260;2024-03-07T02:20:09;47.23;;;28.07;;
26656;SDS011;14279;50.010;8.260;2024-03-07T02:22:36;42.93;;;28.27;;
26656;SDS011;14279;50.010;8.260;2024-03-07T02:25:02;43.33;;;27.60;;
26656;SDS011;14279;50.010;8.260;2024-03-07T02:27:27;41.47;;;27.13;;
26656;SDS011;14279;50.010;8.260;2024-03-07T02:29:52;45.57;;;30.03;;
26656;SDS011;14279;50.010;8.260;2024-03-07T02:32:18;43.67;;;29.10;;
26656;SDS011;14279;50.010;8.260;2024-03-07T02:34:43;47.20;;;28.03;;
26656;SDS011;14279;50.010;8.260;2024-03-07T02:37:08;45.57;;;28.20;;
26656;SDS011;14279;50.010;8.260;2024-03-07T02:39:34;43.10;;;26.00;;
26656;SDS011;14279;50.010;8.260;2024-03-07T02:42:01;41.27;;;26.57;;
26656;SDS011;14279;50.010;8.260;2024-03-07T02:44:26;46.50;;;26.40;;
26656;SDS011;14279;50.010;8.260;2024-03-07T02:46:51;42.03;;;27.77;;
26656;SDS011;14279;50.010;8.260;2024-03-07T02:49:16;47.00;;;28.47;;
26656;SDS011;14279;50.010;8.260;2024-03-07T02:51:41;45.83;;;26.47;;
26656;SDS011;14279;50.010;8.260;2024-03-07T02:54:07;42.83;;;25.57;;
26656;SDS011;14279;50.010;8.260;2024-03-07T02:56:33;38.63;;;24.90;;
26656;SDS011;14279;50.010;8.260;2024-03-07T02:58:59;46.80;;;25.53;;
26656;SDS011;14279;50.010;8.260;2024-03-07T03:01:24;42.83;;;26.53;;
26656;SDS011;14279;50.010;8.260;2024-03-07T03:03:50;39.97;;;26.33;;
26656;SDS011;14279;50.010;8.260;2024-03-07T03:06:15;47.13;;;24.43;;
26656;SDS011;14279;50.010;8.260;2024-03-07T03:08:40;41.37;;;24.70;;
26656;SDS011;14279;50.010;8.260;2024-03-07T03:11:06;43.03;;;26.43;;
26656;SDS011;14279;50.010;8.260;2024-03-07T03:13:34;39.73;;;24.10;;
26656;SDS011;14279;50.010;8.260;2024-03-07T03:15:59;41.70;;;24.60;;
26656;SDS011;14279;50.010;8.260;2024-03-07T03:18:25;34.87;;;23.03;;
26656;SDS011;14279;50.010;8.260;2024-03-07T03:20:50;37.17;;;24.33;;
26656;SDS011;14279;50.010;8.260;2024-03-07T03:23:16;34.87;;;23.60;;
26656;SDS011;14279;50.010;8.260;2024-03-07T03:25:41;35.47;;;23.57;;
26656;SDS011;14279;50.010;8.260;2024-03-07T03:28:08;35.43;;;24.30;;
26656;SDS011;14279;50.010;8.260;2024-03-07T03:30:36;37.07;;;22.10;;
26656;SDS011;14279;50.010;8.260;2024-03-07T03:33:06;39.80;;;24.87;;
26656;SDS011;14279;50.010;8.260;2024-03-07T03:35:33;38.30;;;25.17;;
26656;SDS011;14279;50.010;8.260;2024-03-07T03:37:59;35.27;;;23.20;;
26656;SDS011;14279;50.010;8.260;2024-03-07T03:40:24;32.67;;;23.10;;
26656;SDS011;14279;50.010;8.260;2024-03-07T03:42:49;40.97;;;22.90;;
26656;SDS011;14279;50.010;8.260;2024-03-07T03:45:15;35.17;;;22.70;;
26656;SDS011;14279;50.010;8.260;2024-03-07T03:47:41;30.00;;;21.20;;
26656;SDS011;14279;50.010;8.260;2024-03-07T03:50:08;37.77;;;21.73;;
26656;SDS011;14279;50.010;8.260;2024-03-07T03:52:35;36.57;;;21.93;;
26656;SDS011;14279;50.010;8.260;2024-03-07T03:55:01;38.27;;;23.40;;
26656;SDS011;14279;50.010;8.260;2024-03-07T03:57:27;35.90;;;23.43;;
26656;SDS011;14279;50.010;8.260;2024-03-07T03:59:54;34.97;;;22.30;;
26656;SDS011;14279;50.010;8.260;2024-03-07T04:02:20;34.83;;;21.17;;
26656;SDS011;14279;50.010;8.260;2024-03-07T04:04:47;37.07;;;23.13;;
26656;SDS011;14279;50.010;8.260;2024-03-07T04:07:13;31.97;;;21.30;;
26656;SDS011;14279;50.010;8.260;2024-03-07T04:09:38;33.03;;;22.13;;
26656;SDS011;14279;50.010;8.260;2024-03-07T04:12:03;36.20;;;22.70;;
26656;SDS011;14279;50.010;8.260;2024-03-07T04:14:30;33.00;;;20.70;;
26656;SDS011;14279;50.010;8.260;2024-03-07T04:16:58;32.70;;;20.00;;
26656;SDS011;14279;50.010;8.260;2024-03-07T04:19:23;28.97;;;21.37;;
26656;SDS011;14279;50.010;8.260;2024-03-07T04:21:48;31.50;;;20.70;;
26656;SDS011;14279;50.010;8.260;2024-03-07T04:24:14;35.83;;;20.50;;
26656;SDS011;14279;50.010;8.260;2024-03-07T04:26:39;29.90;;;21.80;;
26656;SDS011;14279;50.010;8.260;2024-03-07T04:29:06;30.53;;;20.00;;
26656;SDS011;14279;50.010;8.260;2024-03-07T04:31:33;36.37;;;21.07;;
26656;SDS011;14279;50.010;8.260;2024-03-07T04:33:58;32.67;;;21.10;;
26656;SDS011;14279;50.010;8.260;2024-03-07T04:36:24;29.17;;;19.63;;
26656;SDS011;14279;50.010;8.260;2024-03-07T04:38:49;28.80;;;19.50;;
26656;SDS011;14279;50.010;8.260;2024-03-07T04:41:14;29.27;;;19.97;;
26656;SDS011;14279;50.010;8.260;2024-03-07T04:43:42;31.00;;;18.50;;
26656;SDS011;14279;50.010;8.260;2024-03-07T04:46:08;29.07;;;19.90;;
26656;SDS011;14279;50.010;8.260;2024-03-07T04:48:33;29.03;;;17.80;;
26656;SDS011;14279;50.010;8.260;2024-03-07T04:50:58;36.27;;;20.43;;
26656;SDS011;14279;50.010;8.260;2024-03-07T04:53:24;28.63;;;17.80;;
26656;SDS011;14279;50.010;8.260;2024-03-07T04:55:49;27.50;;;17.97;;
26656;SDS011;14279;50.010;8.260;2024-03-07T04:58:15;30.73;;;20.70;;
26656;SDS011;14279;50.010;8.260;2024-03-07T05:00:41;35.33;;;19.73;;
26656;SDS011;14279;50.010;8.260;2024-03-07T05:03:06;31.33;;;19.07;;
26656;SDS011;14279;50.010;8.260;2024-03-07T05:05:31;33.20;;;20.03;;
26656;SDS011;14279;50.010;8.260;2024-03-07T05:07:56;30.77;;;19.77;;
26656;SDS011;14279;50.010;8.260;2024-03-07T05:10:22;23.30;;;16.80;;
26656;SDS011;14279;50.010;8.260;2024-03-07T05:12:47;27.50;;;17.67;;
26656;SDS011;14279;50.010;8.260;2024-03-07T05:15:12;28.60;;;18.93;;
26656;SDS011;14279;50.010;8.260;2024-03-07T05:17:37;31.50;;;19.43;;
26656;SDS011;14279;50.010;8.260;2024-03-07T05:20:04;30.03;;;18.47;;
26656;SDS011;14279;50.010;8.260;2024-03-07T05:22:37;27.07;;;18.27;;
26656;SDS011;14279;50.010;8.260;2024-03-07T05:25:09;29.80;;;18.33;;
26656;SDS011;14279;50.010;8.260;2024-03-07T05:27:35;34.30;;;20.70;;
26656;SDS011;14279;50.010;8.260;2024-03-07T05:30:01;31.40;;;19.17;;
26656;SDS011;14279;50.010;8.260;2024-03-07T05:32:28;29.93;;;18.90;;
26656;SDS011;14279;50.010;8.260;2024-03-07T05:34:53;41.40;;;19.33;;
26656;SDS011;14279;50.010;8.260;2024-03-07T05:37:19;29.93;;;20.17;;
26656;SDS011;14279;50.010;8.260;2024-03-07T05:39:47;28.40;;;19.57;;
26656;SDS011;14279;50.010;8.260;2024-03-07T05:42:12;39.13;;;19.60;;
26656;SDS011;14279;50.010;8.260;2024-03-07T05:44:40;28.47;;;20.17;;
26656;SDS011;14279;50.010;8.260;2024-03-07T05:47:08;31.27;;;19.27;;
26656;SDS011;14279;50.010;8.260;2024-03-07T05:49:34;28.10;;;19.50;;
26656;SDS011;14279;50.010;8.260;2024-03-07T05:51:59;34.03;;;20.87;;
26656;SDS011;14279;50.010;8.260;2024-03-07T05:54:25;34.10;;;21.47;;
26656;SDS011;14279;50.010;8.260;2024-03-07T05:56:50;35.03;;;21.50;;
26656;SDS011;14279;50.010;8.260;2024-03-07T05:59:16;35.47;;;20.53;;
26656;SDS011;14279;50.010;8.260;2024-03-07T06:01:42;32.77;;;21.87;;
26656;SDS011;14279;50.010;8.260;2024-03-07T06:04:07;37.53;;;22.50;;
26656;SDS011;14279;50.010;8.260;2024-03-07T06:06:35;34.40;;;22.97;;
26656;SDS011;14279;50.010;8.260;2024-03-07T06:09:02;34.30;;;22.70;;
26656;SDS011;14279;50.010;8.260;2024-03-07T06:11:37;33.50;;;23.30;;
26656;SDS011;14279;50.010;8.260;2024-03-07T06:14:03;31.53;;;23.10;;
26656;SDS011;14279;50.010;8.260;2024-03-07T06:16:30;35.30;;;23.57;;
26656;SDS011;14279;50.010;8.260;2024-03-07T06:19:00;35.63;;;22.57;;
26656;SDS011;14279;50.010;8.260;2024-03-07T06:21:29;37.37;;;22.63;;
26656;SDS011;14279;50.010;8.260;2024-03-07T06:23:57;41.83;;;24.00;;
26656;SDS011;14279;50.010;8.260;2024-03-07T06:26:28;38.83;;;23.00;;
26656;SDS011;14279;50.010;8.260;2024-03-07T06:29:13;34.37;;;23.13;;
26656;SDS011;14279;50.010;8.260;2024-03-07T06:31:41;35.13;;;22.20;;
26656;SDS011;14279;50.010;8.260;2024-03-07T06:34:07;35.70;;;23.10;;
26656;SDS011;14279;50.010;8.260;2024-03-07T06:36:33;33.63;;;22.80;;
26656;SDS011;14279;50.010;8.260;2024-03-07T06:38:59;34.90;;;24.13;;
26656;SDS011;14279;50.010;8.260;2024-03-07T06:41:24;32.90;;;21.37;;
26656;SDS011;14279;50.010;8.260;2024-03-07T06:43:50;29.00;;;21.20;;
26656;SDS011;14279;50.010;8.260;2024-03-07T06:46:16;33.03;;;19.53;;
26656;SDS011;14279;50.010;8.260;2024-03-07T06:48:41;29.27;;;19.87;;
26656;SDS011;14279;50.010;8.260;2024-03-07T06:51:10;31.03;;;19.43;;
26656;SDS011;14279;50.010;8.260;2024-03-07T06:53:35;31.33;;;19.83;;
26656;SDS011;14279;50.010;8.260;2024-03-07T06:56:01;27.23;;;18.30;;
26656;SDS011;14279;50.010;8.260;2024-03-07T06:58:26;24.20;;;17.90;;
26656;SDS011;14279;50.010;8.260;2024-03-07T07:00:51;28.33;;;19.13;;
26656;SDS011;14279;50.010;8.260;2024-03-07T07:03:19;29.40;;;18.77;;
26656;SDS011;14279;50.010;8.260;2024-03-07T07:05:45;33.53;;;18.60;;
26656;SDS011;14279;50.010;8.260;2024-03-07T07:08:10;38.90;;;18.47;;
26656;SDS011;14279;50.010;8.260;2024-03-07T07:10:36;32.63;;;18.00;;
26656;SDS011;14279;50.010;8.260;2024-03-07T07:13:01;29.13;;;19.33;;
26656;SDS011;14279;50.010;8.260;2024-03-07T07:15:29;39.83;;;19.07;;
26656;SDS011;14279;50.010;8.260;2024-03-07T07:17:54;24.03;;;17.30;;
26656;SDS011;14279;50.010;8.260;2024-03-07T07:20:20;26.77;;;18.17;;
26656;SDS011;14279;50.010;8.260;2024-03-07T07:22:46;33.93;;;17.50;;
26656;SDS011;14279;50.010;8.260;2024-03-07T07:25:12;27.73;;;18.70;;
26656;SDS011;14279;50.010;8.260;2024-03-07T07:27:45;28.60;;;18.63;;
26656;SDS011;14279;50.010;8.260;2024-03-07T07:30:12;26.50;;;19.17;;
26656;SDS011;14279;50.010;8.260;2024-03-07T07:32:39;28.97;;;19.90;;
26656;SDS011;14279;50.010;8.260;2024-03-07T07:35:05;28.93;;;19.63;;
26656;SDS011;14279;50.010;8.260;2024-03-07T07:37:40;26.83;;;18.97;;
26656;SDS011;14279;50.010;8.260;2024-03-07T07:40:10;30.67;;;19.97;;
26656;SDS011;14279;50.010;8.260;2024-03-07T07:42:46;27.47;;;18.00;;
26656;SDS011;14279;50.010;8.260;2024-03-07T07:45:12;28.67;;;18.90;;
26656;SDS011;14279;50.010;8.260;2024-03-07T07:47:39;26.30;;;18.30;;
26656;SDS011;14279;50.010;8.260;2024-03-07T07:50:09;32.90;;;19.77;;
26656;SDS011;14279;50.010;8.260;2024-03-07T07:52:42;30.50;;;19.30;;
26656;SDS011;14279;50.010;8.260;2024-03-07T07:55:15;29.17;;;18.50;;
26656;SDS011;14279;50.010;8.260;2024-03-07T07:57:46;31.20;;;20.53;;
26656;SDS011;14279;50.010;8.260;2024-03-07T08:00:18;28.40;;;19.63;;
26656;SDS011;14279;50.010;8.260;2024-03-07T08:02:48;30.93;;;20.40;;
26656;SDS011;14279;50.010;8.260;2024-03-07T08:05:15;29.83;;;20.77;;
26656;SDS011;14279;50.010;8.260;2024-03-07T08:07:43;31.67;;;21.03;;
26656;SDS011;14279;50.010;8.260;2024-03-07T08:10:09;32.40;;;20.63;;
26656;SDS011;14279;50.010;8.260;2024-03-07T08:12:34;34.27;;;21.50;;
26656;SDS011;14279;50.010;8.260;2024-03-07T08:15:02;32.67;;;20.60;;
26656;SDS011;14279;50.010;8.260;2024-03-07T08:17:28;30.17;;;20.70;;
26656;SDS011;14279;50.010;8.260;2024-03-07T08:19:53;31.97;;;21.00;;
26656;SDS011;14279;50.010;8.260;2024-03-07T08:22:18;33.20;;;20.53;;
26656;SDS011;14279;50.010;8.260;2024-03-07T08:24:44;34.63;;;20.93;;
26656;SDS011;14279;50.010;8.260;2024-03-07T08:27:10;28.50;;;19.90;;
26656;SDS011;14279;50.010;8.260;2024-03-07T08:29:36;28.27;;;20.00;;
26656;SDS011;14279;50.010;8.260;2024-03-07T08:32:01;33.10;;;21.00;;
26656;SDS011;14279;50.010;8.260;2024-03-07T08:34:27;30.23;;;20.00;;
26656;SDS011;14279;50.010;8.260;2024-03-07T08:36:53;31.10;;;19.90;;
26656;SDS011;14279;50.010;8.260;2024-03-07T08:39:18;28.00;;;19.50;;
26656;SDS011;14279;50.010;8.260;2024-03-07T08:41:44;36.93;;;20.40;;
26656;SDS011;14279;50.010;8.260;2024-03-07T08:44:11;29.80;;;19.70;;
26656;SDS011;14279;50.010;8.260;2024-03-07T08:46:40;27.27;;;18.57;;
26656;SDS011;14279;50.010;8.260;2024-03-07T08:49:06;25.80;;;17.80;;
26656;SDS011;14279;50.010;8.260;2024-03-07T08:51:32;28.63;;;18.80;;
26656;SDS011;14279;50.010;8.260;2024-03-07T08:53:57;25.57;;;17.57;;
26656;SDS011;14279;50.010;8.260;2024-03-07T08:56:22;25.30;;;17.90;;
26656;SDS011;14279;50.010;8.260;2024-03-07T08:58:48;25.40;;;18.00;;
26656;SDS011;14279;50.010;8.260;2024-03-07T09:01:13;29.50;;;17.70;;
26656;SDS011;14279;50.010;8.260;2024-03-07T09:03:38;25.67;;;17.67;;
26656;SDS011;14279;50.010;8.260;2024-03-07T09:06:06;24.33;;;16.97;;
26656;SDS011;14279;50.010;8.260;2024-03-07T09:08:31;22.23;;;15.20;;
26656;SDS011;14279;50.010;8.260;2024-03-07T09:10:59;26.13;;;16.30;;
26656;SDS011;14279;50.010;8.260;2024-03-07T09:13:30;21.23;;;15.40;;
26656;SDS011;14279;50.010;8.260;2024-03-07T09:15:55;25.33;;;16.77;;
26656;SDS011;14279;50.010;8.260;2024-03-07T09:18:20;22.93;;;15.17;;
26656;SDS011;14279;50.010;8.260;2024-03-07T09:20:47;25.40;;;15.90;;
26656;SDS011;14279;50.010;8.260;2024-03-07T09:23:15;21.20;;;15.43;;
26656;SDS011;14279;50.010;8.260;2024-03-07T09:25:40;30.27;;;15.80;;
26656;SDS011;14279;50.010;8.260;2024-03-07T09:28:06;27.50;;;15.00;;
26656;SDS011;14279;50.010;8.260;2024-03-07T09:30:31;27.07;;;16.33;;
26656;SDS011;14279;50.010;8.260;2024-03-07T09:32:56;27.73;;;18.17;;
26656;SDS011;14279;50.010;8.260;2024-03-07T09:35:22;24.03;;;16.73;;
26656;SDS011;14279;50.010;8.260;2024-03-07T09:37:47;26.10;;;17.10;;
26656;SDS011;14279;50.010;8.260;2024-03-07T09:40:12;24.23;;;15.77;;
26656;SDS011;14279;50.010;8.260;2024-03-07T09:42:46;24.30;;;16.80;;
26656;SDS011;14279;50.010;8.260;2024-03-07T09:45:19;24.37;;;16.63;;
26656;SDS011;14279;50.010;8.260;2024-03-07T09:47:48;25.63;;;16.83;;
26656;SDS011;14279;50.010;8.260;2024-03-07T09:50:18;22.20;;;16.03;;
26656;SDS011;14279;50.010;8.260;2024-03-07T09:52:46;29.23;;;16.47;;
26656;SDS011;14279;50.010;8.260;2024-03-07T09:55:14;24.97;;;16.50;;
26656;SDS011;14279;50.010;8.260;2024-03-07T09:57:40;22.63;;;15.30;;
26656;SDS011;14279;50.010;8.260;2024-03-07T10:00:06;26.93;;;18.40;;
26656;SDS011;14279;50.010;8.260;2024-03-07T10:02:34;34.20;;;17.93;;
26656;SDS011;14279;50.010;8.260;2024-03-07T10:05:01;29.10;;;16.93;;
26656;SDS011;14279;50.010;8.260;2024-03-07T10:11:30;25.27;;;17.50;;
26656;SDS011;14279;50.010;8.260;2024-03-07T10:13:56;36.73;;;17.60;;
26656;SDS011;14279;50.010;8.260;2024-03-07T10:16:22;25.90;;;17.10;;
26656;SDS011;14279;50.010;8.260;2024-03-07T10:18:51;28.17;;;18.40;;
26656;SDS011;14279;50.010;8.260;2024-03-07T10:21:21;29.90;;;17.90;;
26656;SDS011;14279;50.010;8.260;2024-03-07T10:24:08;26.43;;;17.30;;
26656;SDS011;14279;50.010;8.260;2024-03-07T10:26:36;25.17;;;17.53;;
26656;SDS011;14279;50.010;8.260;2024-03-07T10:29:03;24.20;;;14.40;;
26656;SDS011;14279;50.010;8.260;2024-03-07T10:31:29;29.63;;;17.70;;
26656;SDS011;14279;50.010;8.260;2024-03-07T10:34:05;24.20;;;16.40;;
26656;SDS011;14279;50.010;8.260;2024-03-07T10:36:33;25.87;;;18.30;;
26656;SDS011;14279;50.010;8.260;2024-03-07T10:38:59;25.73;;;16.93;;
26656;SDS011;14279;50.010;8.260;2024-03-07T10:41:27;24.43;;;17.30;;
26656;SDS011;14279;50.010;8.260;2024-03-07T10:43:55;28.63;;;17.67;;
26656;SDS011;14279;50.010;8.260;2024-03-07T10:46:23;24.40;;;16.70;;
26656;SDS011;14279;50.010;8.260;2024-03-07T10:48:54;28.20;;;18.03;;
26656;SDS011;14279;50.010;8.260;2024-03-07T10:51:25;32.60;;;17.20;;
26656;SDS011;14279;50.010;8.260;2024-03-07T10:54:34;27.30;;;18.20;;
26656;SDS011;14279;50.010;8.260;2024-03-07T11:00:14;24.80;;;16.53;;
26656;SDS011;14279;50.010;8.260;2024-03-07T11:02:55;37.53;;;17.20;;
26656;SDS011;14279;50.010;8.260;2024-03-07T11:05:25;25.63;;;16.90;;
26656;SDS011;14279;50.010;8.260;2024-03-07T11:07:54;27.70;;;17.70;;
26656;SDS011;14279;50.010;8.260;2024-03-07T11:10:20;27.30;;;16.60;;
26656;SDS011;14279;50.010;8.260;2024-03-07T11:12:46;26.80;;;17.90;;
26656;SDS011;14279;50.010;8.260;2024-03-07T11:15:16;25.30;;;16.83;;
26656;SDS011;14279;50.010;8.260;2024-03-07T11:17:45;24.80;;;17.23;;
26656;SDS011;14279;50.010;8.260;2024-03-07T11:20:19;29.23;;;18.30;;
26656;SDS011;14279;50.010;8.260;2024-03-07T11:22:51;27.47;;;17.70;;
26656;SDS011;14279;50.010;8.260;2024-03-07T11:25:20;29.40;;;18.90;;
26656;SDS011;14279;50.010;8.260;2024-03-07T11:27:52;28.20;;;18.40;;
26656;SDS011;14279;50.010;8.260;2024-03-07T11:30:21;26.40;;;17.07;;
26656;SDS011;14279;50.010;8.260;2024-03-07T11:32:48;27.80;;;18.00;;
26656;SDS011;14279;50.010;8.260;2024-03-07T11:35:18;30.27;;;17.70;;
26656;SDS011;14279;50.010;8.260;2024-03-07T11:37:50;25.40;;;17.23;;
26656;SDS011;14279;50.010;8.260;2024-03-07T11:43:04;24.53;;;17.00;;
26656;SDS011;14279;50.010;8.260;2024-03-07T11:46:31;29.63;;;19.13;;
26656;SDS011;14279;50.010;8.260;2024-03-07T11:49:08;30.30;;;17.93;;
26656;SDS011;14279;50.010;8.260;2024-03-07T11:51:41;29.77;;;17.50;;
26656;SDS011;14279;50.010;8.260;2024-03-07T11:57:43;30.17;;;18.20;;
26656;SDS011;14279;50.010;8.260;2024-03-07T12:00:11;28.13;;;17.63;;
26656;SDS011;14279;50.010;8.260;2024-03-07T12:05:32;31.23;;;16.40;;
26656;SDS011;14279;50.010;8.260;2024-03-07T12:07:58;26.00;;;17.90;;
26656;SDS011;14279;50.010;8.260;2024-03-07T12:10:38;32.33;;;18.17;;
26656;SDS011;14279;50.010;8.260;2024-03-07T12:13:05;27.70;;;16.63;;
26656;SDS011;14279;50.010;8.260;2024-03-07T12:15:50;24.03;;;16.97;;
26656;SDS011;14279;50.010;8.260;2024-03-07T12:18:34;23.17;;;16.30;;
26656;SDS011;14279;50.010;8.260;2024-03-07T12:21:12;28.60;;;16.73;;
26656;SDS011;14279;50.010;8.260;2024-03-07T12:23:46;22.73;;;16.20;;
26656;SDS011;14279;50.010;8.260;2024-03-07T12:26:22;25.00;;;14.90;;
26656;SDS011;14279;50.010;8.260;2024-03-07T12:29:10;28.80;;;16.73;;
26656;SDS011;14279;50.010;8.260;2024-03-07T12:34:27;31.20;;;17.60;;
26656;SDS011;14279;50.010;8.260;2024-03-07T12:37:13;21.70;;;15.77;;
26656;SDS011;14279;50.010;8.260;2024-03-07T12:39:51;23.43;;;16.43;;
26656;SDS011;14279;50.010;8.260;2024-03-07T12:42:26;24.07;;;16.30;;
26656;SDS011;14279;50.010;8.260;2024-03-07T12:45:05;22.57;;;16.90;;
26656;SDS011;14279;50.010;8.260;2024-03-07T12:47:43;23.83;;;15.53;;
26656;SDS011;14279;50.010;8.260;2024-03-07T12:50:31;24.10;;;15.50;;
26656;SDS011;14279;50.010;8.260;2024-03-07T12:53:15;20.63;;;14.73;;
26656;SDS011;14279;50.010;8.260;2024-03-07T12:59:30;23.00;;;15.60;;
26656;SDS011;14279;50.010;8.260;2024-03-07T13:01:59;21.80;;;14.93;;
26656;SDS011;14279;50.010;8.260;2024-03-07T13:07:30;20.33;;;14.00;;
26656;SDS011;14279;50.010;8.260;2024-03-07T13:10:11;22.73;;;14.63;;
26656;SDS011;14279;50.010;8.260;2024-03-07T13:13:03;24.30;;;14.30;;
26656;SDS011;14279;50.010;8.260;2024-03-07T13:16:05;22.70;;;14.43;;
26656;SDS011;14279;50.010;8.260;2024-03-07T13:19:05;19.83;;;13.43;;
26656;SDS011;14279;50.010;8.260;2024-03-07T13:25:14;16.63;;;11.97;;
26656;SDS011;14279;50.010;8.260;2024-03-07T13:28:23;21.07;;;12.37;;
26656;SDS011;14279;50.010;8.260;2024-03-07T13:38:09;23.00;;;14.10;;
26656;SDS011;14279;50.010;8.260;2024-03-07T13:40:58;18.67;;;13.10;;
26656;SDS011;14279;50.010;8.260;2024-03-07T13:43:36;23.17;;;14.20;;
26656;SDS011;14279;50.010;8.260;2024-03-07T13:46:02;17.83;;;12.97;;
26656;SDS011;14279;50.010;8.260;2024-03-07T13:48:31;20.00;;;12.67;;
26656;SDS011;14279;50.010;8.260;2024-03-07T13:51:01;19.23;;;13.07;;
26656;SDS011;14279;50.010;8.260;2024-03-07T13:53:33;18.97;;;11.87;;
26656;SDS011;14279;50.010;8.260;2024-03-07T13:59:20;17.23;;;12.27;;
26656;SDS011;14279;50.010;8.260;2024-03-07T14:05:24;15.63;;;10.97;;
26656;SDS011;14279;50.010;8.260;2024-03-07T14:12:55;14.83;;;10.60;;
26656;SDS011;14279;50.010;8.260;2024-03-07T14:22:21;16.27;;;10.07;;
26656;SDS011;14279;50.010;8.260;2024-03-07T14:28:48;14.90;;;10.40;;
26656;SDS011;14279;50.010;8.260;2024-03-07T14:31:15;14.70;;;10.03;;
26656;SDS011;14279;50.010;8.260;2024-03-07T14:37:43;15.30;;;10.60;;
26656;SDS011;14279;50.010;8.260;2024-03-07T14:54:45;14.40;;;8.70;;
26656;SDS011;14279;50.010;8.260;2024-03-07T14:57:23;15.83;;;9.20;;
26656;SDS011;14279;50.010;8.260;2024-03-07T15:03:27;15.03;;;9.20;;
26656;SDS011;14279;50.010;8.260;2024-03-07T15:05:56;12.10;;;9.40;;
26656;SDS011;14279;50.010;8.260;2024-03-07T15:08:33;17.23;;;9.60;;
26656;SDS011;14279;50.010;8.260;2024-03-07T15:11:16;12.10;;;8.33;;
26656;SDS011;14279;50.010;8.260;2024-03-07T15:14:27;17.47;;;9.50;;
26656;SDS011;14279;50.010;8.260;2024-03-07T15:17:20;23.97;;;11.40;;
26656;SDS011;14279;50.010;8.260;2024-03-07T15:19:48;14.27;;;9.70;;
26656;SDS011;14279;50.010;8.260;2024-03-07T15:22:14;17.00;;;10.90;;
26656;SDS011;14279;50.010;8.260;2024-03-07T15:24:41;14.70;;;10.67;;
26656;SDS011;14279;50.010;8.260;2024-03-07T15:27:06;15.80;;;11.40;;
26656;SDS011;14279;50.010;8.260;2024-03-07T15:29:32;16.70;;;10.70;;
26656;SDS011;14279;50.010;8.260;2024-03-07T15:31:59;17.70;;;11.97;;
26656;SDS011;14279;50.010;8.260;2024-03-07T15:34:27;14.20;;;9.90;;
26656;SDS011;14279;50.010;8.260;2024-03-07T15:36:58;15.17;;;9.93;;
26656;SDS011;14279;50.010;8.260;2024-03-07T15:39:27;13.00;;;8.90;;
26656;SDS011;14279;50.010;8.260;2024-03-07T15:41:55;14.00;;;9.23;;
26656;SDS011;14279;50.010;8.260;2024-03-07T15:44:20;19.63;;;10.30;;
26656;SDS011;14279;50.010;8.260;2024-03-07T15:46:46;13.03;;;9.93;;
26656;SDS011;14279;50.010;8.260;2024-03-07T15:49:17;15.30;;;10.17;;
26656;SDS011;14279;50.010;8.260;2024-03-07T15:52:18;12.10;;;8.63;;